createdAt,value
2018-07-14T00:01:02.567Z,3.40
2018-07-14T00:03:31.576Z,3.05
2018-07-14T00:06:01.828Z,3.12
2018-07-14T00:08:30.695Z,2.50
2018-07-14T00:10:59.786Z,2.77
2018-07-14T00:13:29.738Z,2.67
2018-07-14T00:15:58.992Z,2.17
2018-07-14T00:18:27.892Z,3.05
2018-07-14T00:20:56.904Z,1.87
2018-07-14T00:23:25.702Z,1.77
2018-07-14T00:26:00.853Z,2.17
2018-07-14T00:28:31.077Z,2.58
2018-07-14T00:31:00.374Z,2.02
2018-07-14T00:33:30.291Z,2.22
2018-07-14T00:35:59.418Z,2.10
2018-07-14T00:38:28.904Z,2.58
2018-07-14T00:40:58.283Z,2.25
2018-07-14T00:43:27.266Z,1.87
2018-07-14T00:45:56.556Z,2.15
2018-07-14T00:48:25.363Z,2.25
2018-07-14T00:50:54.638Z,2.15
2018-07-14T00:53:23.724Z,1.98
2018-07-14T00:55:53.227Z,1.90
2018-07-14T00:58:22.155Z,2.22
2018-07-14T01:00:51.346Z,1.90
2018-07-14T01:03:20.283Z,2.20
2018-07-14T01:05:49.777Z,1.98
2018-07-14T01:08:18.753Z,2.15
2018-07-14T01:10:47.759Z,1.85
2018-07-14T01:13:16.639Z,2.10
2018-07-14T01:15:45.622Z,1.90
2018-07-14T01:18:14.483Z,1.90
2018-07-14T01:20:43.293Z,1.72
2018-07-14T01:23:12.219Z,2.40
2018-07-14T01:25:41.179Z,2.00
2018-07-14T01:28:10.898Z,2.10
2018-07-14T01:30:40.032Z,1.65
2018-07-14T01:33:09.434Z,1.90
2018-07-14T01:35:38.110Z,1.60
2018-07-14T01:38:07.037Z,2.00
2018-07-14T01:40:36.207Z,1.65
2018-07-14T01:43:05.576Z,1.85
2018-07-14T01:45:35.397Z,1.75
2018-07-14T01:48:04.363Z,1.85
2018-07-14T01:50:33.162Z,1.87
2018-07-14T01:53:02.392Z,2.05
2018-07-14T01:55:31.167Z,2.37
2018-07-14T01:58:00.283Z,2.08
2018-07-14T02:00:29.162Z,2.75
2018-07-14T02:02:58.556Z,2.52
2018-07-14T02:05:27.753Z,1.95
2018-07-14T02:07:56.522Z,2.77
2018-07-14T02:10:25.938Z,2.77
2018-07-14T02:12:55.373Z,3.10
2018-07-14T02:15:24.155Z,2.50
2018-07-14T02:17:53.147Z,2.98
2018-07-14T02:20:22.258Z,2.58
2018-07-14T02:22:51.441Z,2.98
2018-07-14T02:25:20.726Z,2.90
2018-07-14T02:27:50.059Z,3.65
2018-07-14T02:30:19.531Z,2.27
2018-07-14T02:32:48.425Z,1.92
2018-07-14T02:35:17.949Z,3.40
2018-07-14T02:37:46.735Z,2.55
2018-07-14T02:40:15.780Z,2.52
2018-07-14T02:42:44.947Z,2.72
2018-07-14T02:45:13.818Z,2.80
2018-07-14T02:47:42.508Z,2.70
2018-07-14T02:50:11.940Z,2.02
2018-07-14T02:52:40.995Z,2.20
2018-07-14T02:55:09.794Z,2.58
2018-07-14T02:57:38.915Z,4.10
2018-07-14T03:00:08.094Z,3.30
2018-07-14T03:02:37.679Z,2.25
2018-07-14T03:05:06.968Z,2.80
2018-07-14T03:07:35.896Z,2.95
2018-07-14T03:10:04.994Z,3.27
2018-07-14T03:12:34.011Z,2.40
2018-07-14T03:15:02.882Z,2.75
2018-07-14T03:17:31.569Z,2.98
2018-07-14T03:20:01.503Z,4.03
2018-07-14T03:22:30.720Z,3.20
2018-07-14T03:24:59.851Z,2.55
2018-07-14T03:27:29.128Z,2.47
2018-07-14T03:29:57.959Z,3.08
2018-07-14T03:32:26.971Z,2.10
2018-07-14T03:34:56.226Z,3.10
2018-07-14T03:37:25.255Z,2.15
2018-07-14T03:39:54.255Z,2.22
2018-07-14T03:42:23.584Z,3.77
2018-07-14T03:44:52.447Z,2.75
2018-07-14T03:47:22.332Z,1.95
2018-07-14T03:49:51.487Z,1.70
2018-07-14T03:52:20.352Z,1.77
2018-07-14T03:54:49.251Z,1.70
2018-07-14T03:57:18.466Z,1.20
2018-07-14T03:59:47.311Z,1.40
2018-07-14T04:02:16.545Z,1.85
2018-07-14T04:04:46.062Z,1.10
2018-07-14T04:07:14.927Z,1.60
2018-07-14T04:09:45.033Z,1.27
2018-07-14T04:12:14.102Z,1.00
2018-07-14T04:14:43.180Z,1.57
2018-07-14T04:17:12.554Z,1.37
2018-07-14T04:19:41.687Z,1.52
2018-07-14T04:22:10.635Z,0.82
2018-07-14T04:24:39.668Z,1.75
2018-07-14T04:27:09.287Z,2.05
2018-07-14T04:29:38.246Z,1.30
2018-07-14T04:32:07.029Z,2.00
2018-07-14T04:34:36.146Z,1.05
2018-07-14T04:37:05.839Z,19.20
2018-07-14T04:39:34.934Z,11.18
2018-07-14T04:42:05.059Z,6.22
2018-07-14T04:44:33.842Z,1.67
2018-07-14T04:47:02.815Z,1.52
2018-07-14T04:49:32.179Z,2.45
2018-07-14T04:52:01.245Z,1.40
2018-07-14T04:54:30.131Z,1.87
2018-07-14T04:56:59.659Z,2.52
2018-07-14T04:59:29.556Z,2.67
2018-07-14T05:01:58.339Z,3.42
2018-07-14T05:04:27.699Z,3.33
2018-07-14T05:06:56.637Z,0.82
2018-07-14T05:09:25.708Z,0.90
2018-07-14T05:11:55.079Z,0.90
2018-07-14T05:14:24.022Z,1.00
2018-07-14T05:16:52.920Z,0.98
2018-07-14T05:19:22.139Z,1.00
2018-07-14T05:21:51.400Z,0.78
2018-07-14T05:24:21.110Z,0.78
2018-07-14T05:26:50.435Z,0.70
2018-07-14T05:30:48.619Z,0.50
2018-07-14T05:33:17.287Z,0.70
2018-07-14T05:35:46.294Z,0.90
2018-07-14T05:38:15.612Z,1.17
2018-07-14T05:40:44.483Z,0.93
2018-07-14T05:43:13.312Z,1.00
2018-07-14T05:45:43.586Z,1.00
2018-07-14T05:48:12.649Z,0.98
2018-07-14T05:50:41.661Z,0.70
2018-07-14T05:53:11.322Z,1.50
2018-07-14T05:55:40.488Z,1.37
2018-07-14T05:58:09.468Z,0.70
2018-07-14T06:00:38.198Z,0.60
2018-07-14T06:03:07.054Z,0.68
2018-07-14T06:05:36.081Z,0.55
2018-07-14T06:08:05.382Z,0.60
2018-07-14T06:10:34.543Z,0.65
2018-07-14T06:13:03.350Z,0.60
2018-07-14T06:15:37.836Z,0.50
2018-07-14T06:18:06.883Z,0.60
2018-07-14T06:20:35.755Z,0.50
2018-07-14T06:23:05.595Z,0.72
2018-07-14T06:25:34.496Z,0.78
2018-07-14T06:28:03.573Z,0.60
2018-07-14T06:30:32.399Z,0.53
2018-07-14T06:33:01.456Z,0.70
2018-07-14T06:35:30.237Z,0.60
2018-07-14T06:37:59.364Z,0.62
2018-07-14T06:40:28.317Z,0.90
2018-07-14T06:42:57.562Z,0.60
2018-07-14T06:45:27.594Z,0.60
2018-07-14T06:47:56.761Z,1.05
2018-07-14T06:50:26.314Z,0.50
2018-07-14T06:52:55.605Z,0.50
2018-07-14T06:55:24.614Z,0.50
2018-07-14T06:57:55.809Z,0.40
2018-07-14T07:00:25.415Z,0.40
2018-07-14T07:02:54.984Z,0.50
2018-07-14T07:05:25.935Z,0.60
2018-07-14T07:07:55.636Z,0.50
2018-07-14T07:10:24.601Z,0.50
2018-07-14T07:12:53.484Z,0.57
2018-07-14T07:15:28.294Z,0.70
2018-07-14T07:17:57.299Z,0.70
2018-07-14T07:20:26.406Z,0.75
2018-07-14T07:22:55.838Z,0.70
2018-07-14T07:25:25.506Z,0.70
2018-07-14T07:27:54.396Z,0.55
2018-07-14T07:30:23.648Z,0.60
2018-07-14T07:32:52.561Z,0.80
2018-07-14T07:35:21.381Z,0.55
2018-07-14T07:37:50.823Z,0.80
2018-07-14T07:40:20.088Z,0.70
2018-07-14T07:42:49.086Z,0.60
2018-07-14T07:45:18.038Z,0.70
2018-07-14T07:47:47.279Z,0.70
2018-07-14T07:50:16.419Z,1.52
2018-07-14T07:52:45.584Z,1.30
2018-07-14T07:55:14.795Z,0.62
2018-07-14T07:57:43.610Z,0.60
2018-07-14T08:00:13.048Z,0.50
2018-07-14T08:02:42.089Z,0.70
2018-07-14T08:05:11.225Z,0.75
2018-07-14T08:07:41.167Z,0.98
2018-07-14T08:10:10.299Z,1.20
2018-07-14T08:12:39.783Z,0.80
2018-07-14T08:15:09.206Z,0.80
2018-07-14T08:17:38.651Z,0.50
2018-07-14T08:20:07.591Z,0.90
2018-07-14T08:22:36.617Z,0.53
2018-07-14T08:25:05.708Z,0.70
2018-07-14T08:27:34.685Z,0.60
2018-07-14T08:30:05.027Z,1.30
2018-07-14T08:32:34.189Z,0.60
2018-07-14T08:35:04.110Z,0.60
2018-07-14T08:37:33.420Z,0.90
2018-07-14T08:40:02.583Z,0.70
2018-07-14T08:42:31.270Z,0.60
2018-07-14T08:45:00.640Z,0.82
2018-07-14T08:47:29.799Z,1.02
2018-07-14T08:49:58.926Z,0.60
2018-07-14T08:52:28.288Z,0.70
2018-07-14T08:54:57.573Z,0.60
2018-07-14T08:57:26.693Z,0.82
2018-07-14T08:59:55.848Z,1.07
2018-07-14T09:02:24.885Z,0.80
2018-07-14T09:04:53.874Z,0.55
2018-07-14T09:07:23.021Z,1.40
2018-07-14T09:09:52.137Z,0.55
2018-07-14T09:12:21.069Z,0.70
2018-07-14T09:14:50.502Z,0.50
2018-07-14T09:17:19.778Z,0.80
2018-07-14T09:19:48.715Z,0.90
2018-07-14T09:22:18.118Z,0.50
2018-07-14T09:24:47.040Z,0.65
2018-07-14T09:27:16.125Z,0.60
2018-07-14T09:29:45.220Z,0.70
2018-07-14T09:32:13.954Z,0.60
2018-07-14T09:34:42.926Z,0.40
2018-07-14T09:37:12.195Z,0.60
2018-07-14T09:39:41.023Z,0.60
2018-07-14T09:42:10.118Z,0.50
2018-07-14T09:44:39.598Z,0.70
2018-07-14T09:47:08.746Z,0.72
2018-07-14T09:49:37.889Z,0.50
2018-07-14T09:52:06.883Z,0.50
2018-07-14T09:54:35.968Z,0.70
2018-07-14T09:57:04.907Z,0.50
2018-07-14T09:59:34.063Z,0.60
2018-07-14T10:02:03.236Z,0.70
2018-07-14T10:04:32.298Z,1.12
2018-07-14T10:07:01.806Z,0.60
2018-07-14T10:09:30.970Z,2.05
2018-07-14T10:12:00.062Z,0.90
2018-07-14T10:14:29.304Z,0.50
2018-07-14T10:16:58.397Z,0.50
2018-07-14T10:19:27.186Z,0.57
2018-07-14T10:21:56.627Z,0.60
2018-07-14T10:24:25.918Z,0.65
2018-07-14T10:26:54.970Z,0.40
2018-07-14T10:29:24.722Z,0.60
2018-07-14T10:31:54.340Z,0.50
2018-07-14T10:34:23.482Z,0.40
2018-07-14T10:36:53.089Z,0.70
2018-07-14T10:39:22.091Z,0.50
2018-07-14T10:41:51.106Z,0.50
2018-07-14T10:44:20.326Z,0.50
2018-07-14T10:46:49.696Z,0.60
2018-07-14T10:49:18.823Z,0.60
2018-07-14T10:51:47.640Z,0.50
2018-07-14T10:54:16.691Z,0.50
2018-07-14T10:56:45.483Z,0.60
2018-07-14T10:59:14.536Z,0.62
2018-07-14T11:01:43.407Z,0.62
2018-07-14T11:04:12.290Z,0.98
2018-07-14T11:06:41.267Z,0.55
2018-07-14T11:09:10.783Z,0.50
2018-07-14T11:11:39.868Z,0.60
2018-07-14T11:14:09.143Z,0.72
2018-07-14T11:16:38.343Z,0.60
2018-07-14T11:19:07.563Z,0.68
2018-07-14T11:21:36.875Z,0.60
2018-07-14T11:24:06.066Z,0.60
2018-07-14T11:26:34.922Z,0.60
2018-07-14T11:29:04.278Z,0.90
2018-07-14T11:31:33.554Z,1.25
2018-07-14T11:34:02.445Z,1.10
2018-07-14T11:36:32.281Z,0.78
2018-07-14T11:39:01.943Z,0.50
2018-07-14T11:41:30.887Z,0.50
2018-07-14T11:44:00.027Z,0.60
2018-07-14T11:46:29.072Z,0.50
2018-07-14T11:48:57.879Z,0.60
2018-07-14T11:51:27.202Z,1.60
2018-07-14T11:53:56.667Z,1.32
2018-07-14T11:56:25.378Z,2.98
2018-07-14T11:58:54.671Z,1.60
2018-07-14T12:01:23.667Z,18.30
2018-07-14T12:03:52.643Z,1.22
2018-07-14T12:06:22.475Z,1.77
2018-07-14T12:08:51.246Z,0.65
2018-07-14T12:11:20.135Z,0.70
2018-07-14T12:13:49.636Z,1.30
2018-07-14T12:16:19.269Z,5.08
2018-07-14T12:18:48.253Z,6.67
2018-07-14T12:21:17.450Z,2.22
2018-07-14T12:23:46.234Z,9.80
2018-07-14T12:26:15.723Z,10.65
2018-07-14T12:28:45.064Z,7.83
2018-07-14T12:31:14.145Z,1.00
2018-07-14T12:33:43.207Z,0.60
2018-07-14T12:36:13.163Z,0.60
2018-07-14T12:38:42.056Z,0.70
2018-07-14T12:41:11.040Z,0.70
2018-07-14T12:43:40.131Z,0.78
2018-07-14T12:46:08.952Z,0.65
2018-07-14T12:48:38.430Z,0.60
2018-07-14T12:51:08.571Z,0.70
2018-07-14T12:53:38.603Z,0.50
2018-07-14T12:56:07.693Z,0.50
2018-07-14T12:58:36.773Z,0.60
2018-07-14T13:01:07.083Z,0.78
2018-07-14T13:03:36.030Z,1.47
2018-07-14T13:06:05.591Z,0.60
2018-07-14T13:08:34.683Z,1.50
2018-07-14T13:11:03.588Z,1.40
2018-07-14T13:13:32.782Z,0.70
2018-07-14T13:16:01.879Z,0.65
2018-07-14T13:18:30.759Z,0.60
2018-07-14T13:20:59.824Z,0.60
2018-07-14T13:23:28.554Z,0.70
2018-07-14T13:25:57.463Z,0.80
2018-07-14T13:28:26.559Z,0.80
2018-07-14T13:30:56.678Z,1.10
2018-07-14T13:33:25.999Z,1.22
2018-07-14T13:35:56.523Z,1.25
2018-07-14T13:38:26.619Z,1.20
2018-07-14T13:40:56.386Z,1.95
2018-07-14T13:43:26.477Z,1.42
2018-07-14T13:45:55.447Z,1.35
2018-07-14T13:48:24.642Z,1.15
2018-07-14T13:50:54.351Z,1.72
2018-07-14T13:53:23.358Z,1.40
2018-07-14T13:55:53.079Z,1.50
2018-07-14T13:58:22.936Z,1.10
2018-07-14T14:00:52.041Z,1.80
2018-07-14T14:03:21.010Z,1.20
2018-07-14T14:05:50.199Z,1.10
2018-07-14T14:08:19.020Z,1.00
2018-07-14T14:10:48.104Z,1.25
2018-07-14T14:13:17.322Z,1.57
2018-07-14T14:15:46.603Z,1.20
2018-07-14T14:18:15.914Z,0.90
2018-07-14T14:20:45.234Z,1.30
2018-07-14T14:23:14.612Z,1.20
2018-07-14T14:25:43.887Z,1.30
2018-07-14T14:28:13.421Z,0.95
2018-07-14T14:30:42.482Z,1.35
2018-07-14T14:33:11.642Z,1.50
2018-07-14T14:35:40.754Z,1.50
2018-07-14T14:38:09.712Z,1.67
2018-07-14T14:40:38.899Z,1.95
2018-07-14T14:43:08.847Z,1.85
2018-07-14T14:45:37.922Z,1.80
2018-07-14T14:48:06.919Z,1.35
2018-07-14T14:50:36.176Z,1.75
2018-07-14T14:53:05.178Z,1.42
2018-07-14T14:55:34.104Z,1.92
2018-07-14T14:58:03.530Z,1.05
2018-07-14T15:00:32.355Z,0.85
2018-07-14T15:03:01.273Z,0.90
2018-07-14T15:05:30.263Z,0.80
2018-07-14T15:07:59.080Z,1.02
2018-07-14T15:10:28.357Z,1.15
2018-07-14T15:12:57.803Z,1.10
2018-07-14T15:15:26.758Z,1.10
2018-07-14T15:17:55.657Z,1.00
2018-07-14T15:20:24.367Z,0.70
2018-07-14T15:22:53.631Z,0.85
2018-07-14T15:25:22.394Z,1.10
2018-07-14T15:27:51.518Z,1.25
2018-07-14T15:30:20.640Z,1.12
2018-07-14T15:32:49.836Z,0.90
2018-07-14T15:35:18.759Z,1.17
2018-07-14T15:37:48.134Z,1.30
2018-07-14T15:40:17.123Z,1.50
2018-07-14T15:42:46.325Z,0.90
2018-07-14T15:45:15.219Z,1.47
2018-07-14T15:47:43.979Z,2.35
2018-07-14T15:50:12.898Z,0.80
2018-07-14T15:52:41.793Z,1.10
2018-07-14T15:55:11.367Z,1.55
2018-07-14T15:57:40.599Z,0.98
2018-07-14T16:00:09.967Z,0.90
2018-07-14T16:02:39.007Z,1.37
2018-07-14T16:05:08.238Z,1.00
2018-07-14T16:07:37.299Z,1.10
2018-07-14T16:10:06.405Z,0.98
2018-07-14T16:12:35.395Z,1.07
2018-07-14T16:15:04.209Z,1.35
2018-07-14T16:17:32.849Z,1.10
2018-07-14T16:20:02.284Z,0.70
2018-07-14T16:22:31.804Z,0.60
2018-07-14T16:25:00.788Z,0.70
2018-07-14T16:27:30.188Z,0.90
2018-07-14T16:29:59.278Z,1.12
2018-07-14T16:32:28.474Z,1.70
2018-07-14T16:34:57.717Z,0.90
2018-07-14T16:37:27.347Z,1.32
2018-07-14T16:39:55.959Z,1.10
2018-07-14T16:42:25.494Z,0.90
2018-07-14T16:44:54.407Z,1.17
2018-07-14T16:47:23.862Z,0.98
2018-07-14T16:49:52.635Z,1.30
2018-07-14T16:52:21.553Z,1.87
2018-07-14T16:54:50.846Z,0.93
2018-07-14T16:57:20.023Z,1.05
2018-07-14T16:59:49.095Z,1.75
2018-07-14T17:02:17.999Z,1.50
2018-07-14T17:04:46.975Z,0.70
2018-07-14T17:07:15.788Z,4.53
2018-07-14T17:09:44.770Z,1.95
2018-07-14T17:12:13.997Z,1.27
2018-07-14T17:14:43.547Z,1.20
2018-07-14T17:17:12.404Z,1.37
2018-07-14T17:19:42.009Z,1.02
2018-07-14T17:22:11.274Z,1.30
2018-07-14T17:24:40.175Z,1.55
2018-07-14T17:27:09.859Z,1.40
2018-07-14T17:29:38.572Z,1.90
2018-07-14T17:32:07.576Z,1.70
2018-07-14T17:34:36.370Z,1.20
2018-07-14T17:37:05.449Z,1.67
2018-07-14T17:39:34.447Z,1.90
2018-07-14T17:42:03.789Z,2.12
2018-07-14T17:44:32.553Z,1.92
2018-07-14T17:47:01.616Z,2.02
2018-07-14T17:49:30.854Z,1.90
2018-07-14T17:51:59.695Z,2.10
2018-07-14T17:54:28.592Z,1.80
2018-07-14T17:56:57.862Z,1.80
2018-07-14T17:59:26.948Z,1.98
2018-07-14T18:01:55.880Z,2.05
2018-07-14T18:04:25.243Z,4.22
2018-07-14T18:06:54.323Z,3.35
2018-07-14T18:09:23.510Z,2.10
2018-07-14T18:11:53.014Z,2.70
2018-07-14T18:14:21.908Z,2.67
2018-07-14T18:16:50.925Z,2.37
2018-07-14T18:19:20.025Z,2.75
2018-07-14T18:21:49.090Z,3.05
2018-07-14T18:24:17.983Z,2.52
2018-07-14T18:26:46.860Z,2.30
2018-07-14T18:29:16.598Z,2.30
2018-07-14T18:31:47.516Z,2.90
2018-07-14T18:34:16.589Z,2.45
2018-07-14T18:36:49.243Z,2.95
2018-07-14T18:39:19.327Z,3.33
2018-07-14T18:41:49.178Z,3.70
2018-07-14T18:44:19.064Z,2.80
2018-07-14T18:46:47.986Z,2.75
2018-07-14T18:49:16.768Z,2.87
2018-07-14T18:51:45.672Z,2.40
2018-07-14T18:54:15.283Z,3.22
2018-07-14T18:56:44.276Z,2.62
2018-07-14T18:59:13.271Z,3.12
2018-07-14T19:01:42.523Z,3.25
2018-07-14T19:04:12.214Z,3.40
2018-07-14T19:06:42.186Z,3.52
2018-07-14T19:09:11.461Z,3.05
2018-07-14T19:11:40.460Z,3.87
2018-07-14T19:14:09.384Z,4.42
2018-07-14T19:16:38.904Z,4.33
2018-07-14T19:19:08.181Z,4.58
2018-07-14T19:21:37.072Z,4.35
2018-07-14T19:24:06.702Z,3.77
2018-07-14T19:26:35.788Z,4.35
2018-07-14T19:29:05.389Z,4.62
2018-07-14T19:31:34.770Z,4.33
2018-07-14T19:34:03.651Z,4.80
2018-07-14T19:36:32.947Z,4.62
2018-07-14T19:39:02.749Z,5.15
2018-07-14T19:41:31.541Z,5.03
2018-07-14T19:44:00.719Z,4.12
2018-07-14T19:46:29.710Z,4.60
2018-07-14T19:48:58.514Z,4.80
2018-07-14T19:51:28.131Z,4.58
2018-07-14T19:53:57.448Z,4.70
2018-07-14T19:56:26.616Z,4.62
2018-07-14T19:58:55.518Z,4.95
2018-07-14T20:01:24.703Z,4.70
2018-07-14T20:03:53.619Z,5.10
2018-07-14T20:06:22.804Z,5.28
2018-07-14T20:08:51.949Z,5.53
2018-07-14T20:11:20.718Z,4.87
2018-07-14T20:13:49.690Z,4.70
2018-07-14T20:16:19.116Z,4.60
2018-07-14T20:18:47.892Z,5.22
2018-07-14T20:21:17.300Z,5.90
2018-07-14T20:23:46.412Z,5.80
2018-07-14T20:26:15.162Z,5.60
2018-07-14T20:28:45.076Z,5.78
2018-07-14T20:31:15.019Z,5.65
2018-07-14T20:33:43.925Z,5.83
2018-07-14T20:36:12.823Z,5.85
2018-07-14T20:38:41.974Z,5.10
2018-07-14T20:41:11.071Z,5.70
2018-07-14T20:43:39.871Z,5.62
2018-07-14T20:46:09.159Z,5.95
2018-07-14T20:48:37.970Z,6.25
2018-07-14T20:51:06.866Z,6.25
2018-07-14T20:53:36.066Z,6.25
2018-07-14T20:56:05.100Z,6.75
2018-07-14T20:58:34.259Z,5.87
2018-07-14T21:01:03.470Z,7.05
2018-07-14T21:03:32.551Z,7.00
2018-07-14T21:06:01.340Z,6.50
2018-07-14T21:08:30.636Z,7.58
2018-07-14T21:11:00.096Z,6.92
2018-07-14T21:13:29.247Z,6.72
2018-07-14T21:15:58.655Z,6.75
2018-07-14T21:18:27.519Z,6.62
2018-07-14T21:20:56.650Z,6.62
2018-07-14T21:23:26.366Z,6.80
2018-07-14T21:25:56.078Z,7.70
2018-07-14T21:28:25.407Z,7.85
2018-07-14T21:30:54.493Z,8.30
2018-07-14T21:33:23.267Z,8.45
2018-07-14T21:35:52.219Z,8.28
2018-07-14T21:38:21.827Z,7.92
2018-07-14T21:40:50.829Z,7.67
2018-07-14T21:43:21.705Z,6.95
2018-07-14T21:45:50.603Z,7.72
2018-07-14T21:48:19.675Z,7.67
2018-07-14T21:50:48.891Z,7.20
2018-07-14T21:53:17.739Z,7.37
2018-07-14T21:55:46.590Z,8.00
2018-07-14T21:58:15.783Z,7.35
2018-07-14T22:00:50.083Z,7.45
2018-07-14T22:03:19.167Z,7.50
2018-07-14T22:05:51.856Z,7.78
2018-07-14T22:08:21.724Z,7.40
2018-07-14T22:10:50.625Z,7.05
2018-07-14T22:13:19.863Z,7.53
2018-07-14T22:15:49.793Z,6.65
2018-07-14T22:18:18.618Z,7.42
2018-07-14T22:20:48.772Z,6.30
2018-07-14T22:23:18.661Z,9.35
2018-07-14T22:25:52.802Z,6.20
2018-07-14T22:28:21.875Z,6.08
2018-07-14T22:30:50.656Z,6.47
2018-07-14T22:33:20.727Z,5.95
2018-07-14T22:35:49.574Z,6.45
2018-07-14T22:38:18.367Z,6.47
2018-07-14T22:40:54.567Z,5.67
2018-07-14T22:43:23.710Z,5.95
2018-07-14T22:45:52.624Z,5.08
2018-07-14T22:48:21.998Z,5.72
2018-07-14T22:50:51.020Z,5.33
2018-07-14T22:53:20.455Z,4.83
2018-07-14T22:55:50.743Z,5.20
2018-07-14T22:58:19.627Z,5.72
2018-07-14T23:00:48.750Z,4.90
2018-07-14T23:03:17.867Z,4.10
2018-07-14T23:05:46.844Z,3.70
2018-07-14T23:08:16.251Z,4.85
2018-07-14T23:10:45.367Z,4.42
2018-07-14T23:13:14.241Z,4.37
2018-07-14T23:15:43.806Z,4.62
2018-07-14T23:18:13.121Z,4.20
2018-07-14T23:20:42.135Z,5.10
2018-07-14T23:23:11.229Z,4.75
2018-07-14T23:25:40.251Z,4.08
2018-07-14T23:28:09.126Z,4.22
2018-07-14T23:30:40.173Z,4.47
2018-07-14T23:33:08.845Z,3.83
2018-07-14T23:35:37.838Z,3.40
2018-07-14T23:38:07.039Z,4.28
2018-07-14T23:40:36.246Z,3.75
2018-07-14T23:43:05.741Z,4.05
2018-07-14T23:45:41.257Z,3.05
2018-07-14T23:48:10.893Z,3.40
2018-07-14T23:50:40.101Z,3.45
2018-07-14T23:53:09.419Z,4.03
2018-07-14T23:55:38.744Z,3.60
2018-07-14T23:58:07.488Z,3.72
